createdAt,value
2018-11-06T00:01:40.374Z,18.60
2018-11-06T00:04:08.928Z,18.87
2018-11-06T00:06:37.469Z,18.53
2018-11-06T00:09:08.036Z,18.63
2018-11-06T00:11:36.594Z,21.40
2018-11-06T00:14:05.709Z,17.53
2018-11-06T00:16:34.278Z,14.40
2018-11-06T00:19:02.834Z,15.30
2018-11-06T00:21:31.390Z,17.40
2018-11-06T00:23:59.924Z,17.03
2018-11-06T00:26:28.479Z,15.80
2018-11-06T00:28:57.018Z,18.93
2018-11-06T00:31:25.582Z,17.27
2018-11-06T00:33:54.105Z,18.67
2018-11-06T00:36:22.661Z,21.20
2018-11-06T00:38:51.196Z,19.23
2018-11-06T00:41:19.780Z,22.57
2018-11-06T00:43:48.325Z,20.20
2018-11-06T00:46:16.873Z,22.30
2018-11-06T00:48:45.420Z,18.27
2018-11-06T00:51:13.996Z,22.83
2018-11-06T00:53:42.558Z,21.03
2018-11-06T00:56:11.117Z,21.97
2018-11-06T00:58:39.657Z,18.77
2018-11-06T01:01:08.240Z,15.20
2018-11-06T01:03:42.196Z,16.10
2018-11-06T01:06:10.774Z,17.53
2018-11-06T01:08:39.317Z,17.37
2018-11-06T01:11:07.895Z,16.73
2018-11-06T01:13:36.477Z,14.97
2018-11-06T01:16:05.428Z,16.40
2018-11-06T01:18:33.961Z,15.73
2018-11-06T01:21:02.518Z,16.47
2018-11-06T01:23:31.057Z,16.63
2018-11-06T01:25:59.617Z,17.33
2018-11-06T01:28:28.166Z,16.03
2018-11-06T01:30:56.734Z,17.37
2018-11-06T01:33:25.293Z,17.00
2018-11-06T01:35:53.833Z,18.50
2018-11-06T01:38:22.397Z,19.83
2018-11-06T01:40:50.925Z,19.63
2018-11-06T01:43:19.489Z,16.40
2018-11-06T01:45:48.035Z,21.23
2018-11-06T01:48:16.589Z,19.10
2018-11-06T01:50:45.129Z,21.00
2018-11-06T01:53:13.701Z,19.57
2018-11-06T01:55:42.221Z,18.23
2018-11-06T01:58:10.778Z,18.60
2018-11-06T02:00:39.341Z,18.30
2018-11-06T02:03:07.905Z,19.27
2018-11-06T02:05:36.442Z,20.17
2018-11-06T02:08:05.281Z,16.63
2018-11-06T02:10:33.809Z,18.40
2018-11-06T02:13:02.412Z,18.03
2018-11-06T02:15:30.953Z,18.73
2018-11-06T02:17:59.501Z,18.10
2018-11-06T02:20:28.037Z,18.77
2018-11-06T02:22:56.590Z,16.67
2018-11-06T02:25:25.138Z,15.30
2018-11-06T02:27:53.717Z,16.73
2018-11-06T02:30:22.273Z,17.50
2018-11-06T02:32:50.901Z,14.47
2018-11-06T02:35:19.466Z,17.23
2018-11-06T02:37:48.034Z,17.37
2018-11-06T02:40:16.957Z,17.50
2018-11-06T02:42:45.530Z,17.83
2018-11-06T02:45:14.733Z,17.63
2018-11-06T02:47:43.746Z,18.67
2018-11-06T02:50:13.129Z,20.27
2018-11-06T02:52:42.976Z,19.47
2018-11-06T02:55:11.843Z,19.10
2018-11-06T02:57:40.864Z,18.13
2018-11-06T03:00:12.337Z,20.67
2018-11-06T03:02:40.908Z,19.63
2018-11-06T03:05:10.170Z,19.30
2018-11-06T03:07:38.774Z,20.83
2018-11-06T03:10:08.320Z,18.17
2018-11-06T03:12:36.881Z,19.33
2018-11-06T03:15:06.358Z,17.30
2018-11-06T03:17:34.889Z,14.57
2018-11-06T03:20:03.432Z,16.20
2018-11-06T03:22:31.961Z,14.17
2018-11-06T03:25:00.469Z,20.23
2018-11-06T03:27:29.006Z,20.07
2018-11-06T03:29:57.522Z,19.13
2018-11-06T03:32:26.065Z,18.00
2018-11-06T03:34:54.587Z,20.80
2018-11-06T03:37:23.133Z,16.20
2018-11-06T03:39:51.636Z,18.53
2018-11-06T03:42:20.208Z,12.77
2018-11-06T03:44:48.730Z,16.63
2018-11-06T03:47:17.262Z,17.90
2018-11-06T03:49:45.805Z,15.37
2018-11-06T03:52:14.328Z,18.13
2018-11-06T03:54:43.114Z,17.73
2018-11-06T03:57:11.629Z,17.90
2018-11-06T03:59:40.161Z,16.27
2018-11-06T04:02:08.670Z,16.80
2018-11-06T04:04:37.205Z,16.70
2018-11-06T04:07:06.517Z,18.87
2018-11-06T04:09:35.049Z,19.10
2018-11-06T04:12:03.596Z,17.67
2018-11-06T04:14:32.162Z,16.37
2018-11-06T04:17:00.669Z,15.80
2018-11-06T04:19:29.286Z,16.43
2018-11-06T04:21:57.779Z,16.83
2018-11-06T04:24:26.300Z,16.27
2018-11-06T04:26:54.804Z,16.73
2018-11-06T04:29:23.345Z,17.30
2018-11-06T04:31:51.847Z,15.50
2018-11-06T04:34:20.377Z,17.30
2018-11-06T04:36:48.878Z,14.70
2018-11-06T04:39:17.426Z,16.90
2018-11-06T04:41:45.928Z,15.87
2018-11-06T04:44:14.442Z,19.17
2018-11-06T04:46:42.962Z,19.23
2018-11-06T04:49:11.664Z,17.30
2018-11-06T04:51:40.171Z,20.30
2018-11-06T04:54:08.706Z,21.13
2018-11-06T04:56:37.230Z,18.57
2018-11-06T04:59:05.790Z,17.77
2018-11-06T05:01:34.289Z,25.60
2018-11-06T05:04:02.825Z,22.87
2018-11-06T05:06:31.329Z,26.10
2018-11-06T05:08:59.882Z,19.33
2018-11-06T05:11:28.412Z,18.13
2018-11-06T05:13:57.015Z,17.50
2018-11-06T05:16:25.505Z,16.17
2018-11-06T05:18:54.022Z,18.97
2018-11-06T05:21:22.502Z,21.27
2018-11-06T05:23:51.016Z,15.17
2018-11-06T05:26:19.604Z,14.63
2018-11-06T05:28:48.116Z,24.37
2018-11-06T05:31:16.610Z,17.50
2018-11-06T05:33:45.123Z,20.80
2018-11-06T05:36:13.621Z,19.30
2018-11-06T05:38:42.125Z,28.33
2018-11-06T05:41:10.651Z,24.70
2018-11-06T05:43:39.465Z,17.83
2018-11-06T05:46:07.996Z,21.87
2018-11-06T05:48:36.502Z,22.87
2018-11-06T05:51:05.309Z,35.67
2018-11-06T05:53:33.788Z,37.90
2018-11-06T05:56:02.342Z,40.63
2018-11-06T05:58:30.843Z,41.70
2018-11-06T06:01:01.050Z,44.00
2018-11-06T06:03:29.551Z,39.17
2018-11-06T06:05:58.091Z,46.93
2018-11-06T06:08:26.594Z,43.27
2018-11-06T06:10:56.066Z,50.33
2018-11-06T06:13:24.600Z,43.10
2018-11-06T06:15:53.197Z,46.77
2018-11-06T06:18:21.905Z,48.67
2018-11-06T06:20:50.488Z,43.70
2018-11-06T06:23:19.022Z,39.93
2018-11-06T06:25:47.565Z,47.40
2018-11-06T06:28:16.087Z,44.87
2018-11-06T06:30:44.612Z,41.50
2018-11-06T06:33:13.131Z,43.20
2018-11-06T06:35:41.677Z,40.03
2018-11-06T06:38:10.200Z,37.70
2018-11-06T06:40:38.806Z,39.60
2018-11-06T06:43:07.316Z,38.57
2018-11-06T06:45:42.528Z,35.10
2018-11-06T06:48:13.930Z,36.90
2018-11-06T06:50:45.527Z,38.87
2018-11-06T06:53:17.655Z,39.00
2018-11-06T06:55:52.066Z,41.17
2018-11-06T06:58:25.428Z,38.50
2018-11-06T07:01:00.253Z,40.53
2018-11-06T07:03:33.428Z,41.80
2018-11-06T07:06:06.340Z,43.70
2018-11-06T07:08:34.922Z,39.30
2018-11-06T07:11:03.873Z,34.83
2018-11-06T07:13:33.138Z,33.73
2018-11-06T07:16:01.665Z,32.97
2018-11-06T07:18:30.232Z,31.97
2018-11-06T07:20:58.928Z,33.00
2018-11-06T07:23:27.512Z,27.87
2018-11-06T07:25:56.059Z,28.07
2018-11-06T07:28:24.653Z,29.40
2018-11-06T07:30:53.206Z,30.43
2018-11-06T07:33:21.799Z,26.83
2018-11-06T07:35:50.419Z,38.17
2018-11-06T07:38:18.883Z,64.90
2018-11-06T07:40:51.867Z,43.87
2018-11-06T07:43:20.565Z,63.13
2018-11-06T07:45:49.159Z,47.93
2018-11-06T07:48:17.698Z,46.20
2018-11-06T07:50:46.294Z,49.47
2018-11-06T07:53:14.865Z,41.80
2018-11-06T07:55:43.598Z,51.17
2018-11-06T07:58:12.149Z,60.67
2018-11-06T08:00:40.884Z,62.63
2018-11-06T08:03:12.914Z,53.30
2018-11-06T08:05:41.562Z,48.73
2018-11-06T08:08:10.096Z,44.50
2018-11-06T08:10:38.645Z,37.73
2018-11-06T08:13:08.291Z,19.40
2018-11-06T08:15:36.789Z,23.80
2018-11-06T08:18:05.544Z,21.33
2018-11-06T08:20:35.150Z,19.57
2018-11-06T08:23:08.850Z,15.00
2018-11-06T08:25:37.521Z,16.60
2018-11-06T08:28:06.598Z,17.17
2018-11-06T08:30:35.228Z,18.40
2018-11-06T08:33:03.688Z,15.67
2018-11-06T08:35:32.258Z,16.70
2018-11-06T08:38:00.858Z,16.97
2018-11-06T08:40:29.393Z,14.43
2018-11-06T08:42:57.944Z,16.20
2018-11-06T08:45:26.453Z,14.87
2018-11-06T08:47:55.128Z,15.67
2018-11-06T08:50:23.642Z,18.20
2018-11-06T08:52:55.063Z,14.63
2018-11-06T08:55:23.616Z,14.37
2018-11-06T08:57:52.271Z,15.40
2018-11-06T09:00:29.859Z,14.63
2018-11-06T09:02:58.975Z,13.53
2018-11-06T09:05:27.482Z,12.33
2018-11-06T09:07:56.010Z,13.87
2018-11-06T09:10:24.527Z,13.97
2018-11-06T09:12:53.104Z,14.23
2018-11-06T09:15:21.819Z,14.47
2018-11-06T09:17:50.351Z,13.57
2018-11-06T09:20:18.893Z,14.57
2018-11-06T09:22:47.426Z,14.63
2018-11-06T09:25:17.437Z,21.00
2018-11-06T09:27:45.976Z,14.87
2018-11-06T09:30:16.670Z,13.80
2018-11-06T09:32:45.344Z,14.73
2018-11-06T09:35:14.300Z,15.73
2018-11-06T09:37:43.555Z,15.10
2018-11-06T09:40:14.705Z,13.23
2018-11-06T09:42:43.210Z,14.97
2018-11-06T09:45:12.778Z,16.30
2018-11-06T09:47:41.192Z,16.80
2018-11-06T09:50:12.297Z,16.07
2018-11-06T09:52:46.829Z,21.07
2018-11-06T09:55:16.357Z,13.87
2018-11-06T09:57:45.309Z,18.73
2018-11-06T10:00:15.857Z,17.77
2018-11-06T10:02:44.359Z,15.20
2018-11-06T10:05:13.840Z,19.13
2018-11-06T10:07:42.535Z,14.93
2018-11-06T10:10:19.253Z,15.80
2018-11-06T10:12:51.979Z,15.13
2018-11-06T10:15:26.144Z,15.33
2018-11-06T10:17:55.961Z,16.27
2018-11-06T10:20:24.569Z,19.03
2018-11-06T10:22:53.074Z,16.73
2018-11-06T10:25:22.378Z,18.10
2018-11-06T10:27:51.196Z,14.27
2018-11-06T10:30:20.579Z,19.97
2018-11-06T10:32:49.121Z,15.27
2018-11-06T10:35:17.761Z,16.67
2018-11-06T10:37:46.391Z,16.40
2018-11-06T10:40:18.646Z,15.97
2018-11-06T10:42:47.690Z,15.13
2018-11-06T10:45:16.727Z,14.97
2018-11-06T10:47:45.490Z,14.97
2018-11-06T10:50:14.696Z,15.53
2018-11-06T10:52:44.500Z,14.60
2018-11-06T10:55:13.180Z,13.27
2018-11-06T10:57:42.167Z,12.67
2018-11-06T11:00:17.340Z,13.47
2018-11-06T11:02:51.323Z,13.33
2018-11-06T11:05:21.032Z,15.97
2018-11-06T11:07:49.584Z,14.10
2018-11-06T11:10:18.218Z,18.17
2018-11-06T11:12:46.773Z,15.80
2018-11-06T11:15:15.403Z,14.07
2018-11-06T11:17:44.234Z,13.53
2018-11-06T11:20:14.298Z,14.20
2018-11-06T11:22:43.241Z,14.33
2018-11-06T11:25:13.202Z,15.13
2018-11-06T11:27:42.393Z,15.30
2018-11-06T11:30:13.042Z,15.07
2018-11-06T11:32:43.146Z,15.67
2018-11-06T11:35:12.478Z,17.90
2018-11-06T11:37:41.291Z,15.60
2018-11-06T11:40:11.282Z,16.43
2018-11-06T11:42:39.834Z,17.67
2018-11-06T11:45:11.761Z,18.07
2018-11-06T11:47:41.134Z,17.80
2018-11-06T11:50:11.273Z,18.53
2018-11-06T11:52:40.090Z,18.27
2018-11-06T11:55:10.142Z,20.00
2018-11-06T11:57:39.107Z,18.30
2018-11-06T12:00:09.838Z,16.27
2018-11-06T12:02:38.393Z,18.30
2018-11-06T12:05:09.885Z,17.33
2018-11-06T12:07:38.541Z,18.80
2018-11-06T12:10:08.531Z,15.80
2018-11-06T12:12:37.112Z,15.47
2018-11-06T12:15:09.432Z,17.00
2018-11-06T12:17:38.178Z,17.27
2018-11-06T12:20:06.827Z,19.13
2018-11-06T12:22:35.412Z,16.27
2018-11-06T12:25:04.165Z,15.93
2018-11-06T12:27:32.596Z,16.10
2018-11-06T12:30:01.148Z,17.00
2018-11-06T12:32:29.749Z,18.43
2018-11-06T12:34:58.233Z,18.37
2018-11-06T12:37:26.820Z,16.00
2018-11-06T12:39:55.326Z,17.40
2018-11-06T12:42:24.081Z,16.43
2018-11-06T12:44:52.683Z,15.30
2018-11-06T12:47:21.481Z,18.10
2018-11-06T12:49:50.029Z,16.50
2018-11-06T12:52:18.612Z,19.33
2018-11-06T12:54:47.228Z,18.57
2018-11-06T12:57:15.741Z,20.27
2018-11-06T12:59:44.301Z,17.00
2018-11-06T13:02:14.180Z,16.83
2018-11-06T13:04:42.737Z,18.70
2018-11-06T13:07:13.017Z,16.93
2018-11-06T13:09:42.316Z,16.10
2018-11-06T13:12:10.886Z,18.77
2018-11-06T13:14:39.456Z,18.70
2018-11-06T13:17:10.268Z,17.47
2018-11-06T13:19:38.657Z,17.87
2018-11-06T13:22:07.710Z,17.73
2018-11-06T13:24:36.229Z,18.50
2018-11-06T13:27:05.094Z,17.53
2018-11-06T13:29:33.718Z,154.43
2018-11-06T13:32:02.249Z,49.73
2018-11-06T13:34:30.821Z,20.17
2018-11-06T13:36:59.366Z,20.43
2018-11-06T13:39:28.199Z,18.20
2018-11-06T13:41:56.932Z,18.63
2018-11-06T13:44:25.969Z,17.27
2018-11-06T13:46:54.097Z,20.70
2018-11-06T13:49:23.454Z,18.17
2018-11-06T13:51:52.029Z,21.40
2018-11-06T13:54:21.543Z,23.67
2018-11-06T13:56:50.249Z,19.77
2018-11-06T13:59:18.802Z,19.43
2018-11-06T14:01:47.324Z,17.03
2018-11-06T14:04:15.977Z,18.47
2018-11-06T14:06:44.529Z,19.87
2018-11-06T14:09:13.020Z,18.47
2018-11-06T14:11:41.614Z,21.50
2018-11-06T14:14:10.216Z,18.77
2018-11-06T14:16:38.945Z,17.07
2018-11-06T14:19:07.693Z,16.57
2018-11-06T14:21:36.389Z,18.50
2018-11-06T14:24:05.173Z,18.63
2018-11-06T14:26:33.694Z,17.17
2018-11-06T14:29:02.316Z,16.50
2018-11-06T14:31:30.923Z,17.23
2018-11-06T14:33:59.490Z,18.13
2018-11-06T14:36:28.088Z,17.50
2018-11-06T14:38:56.738Z,19.47
2018-11-06T14:41:25.259Z,19.50
2018-11-06T14:43:53.948Z,20.10
2018-11-06T14:46:22.502Z,21.30
2018-11-06T14:48:51.130Z,17.20
2018-11-06T14:51:19.564Z,22.80
2018-11-06T14:53:48.196Z,27.10
2018-11-06T14:56:16.849Z,32.57
2018-11-06T14:58:45.398Z,16.33
2018-11-06T15:01:13.980Z,16.23
2018-11-06T15:03:43.182Z,15.83
2018-11-06T15:06:11.730Z,23.57
2018-11-06T15:08:40.334Z,22.70
2018-11-06T15:11:10.297Z,24.67
2018-11-06T15:13:38.857Z,16.63
2018-11-06T15:16:07.370Z,20.10
2018-11-06T15:18:35.930Z,19.67
2018-11-06T15:21:04.449Z,16.23
2018-11-06T15:23:32.984Z,19.90
2018-11-06T15:26:01.478Z,19.25
2018-11-06T15:28:30.011Z,30.57
2018-11-06T15:30:58.682Z,32.70
2018-11-06T15:33:27.218Z,25.33
2018-11-06T15:35:55.706Z,25.97
2018-11-06T15:38:24.217Z,27.30
2018-11-06T15:40:52.747Z,27.80
2018-11-06T15:43:21.250Z,17.83
2018-11-06T15:45:50.443Z,22.23
2018-11-06T15:48:18.938Z,23.83
2018-11-06T15:50:47.462Z,19.73
2018-11-06T15:53:16.054Z,18.90
2018-11-06T15:55:44.565Z,21.63
2018-11-06T15:58:13.121Z,20.17
2018-11-06T16:00:41.767Z,21.53
2018-11-06T16:03:10.240Z,16.70
2018-11-06T16:05:38.758Z,16.30
2018-11-06T16:08:07.325Z,16.50
2018-11-06T16:10:35.838Z,14.30
2018-11-06T16:13:04.615Z,18.43
2018-11-06T16:15:33.465Z,18.23
2018-11-06T16:18:01.937Z,21.13
2018-11-06T16:20:30.468Z,17.80
2018-11-06T16:22:58.981Z,15.83
2018-11-06T16:25:27.497Z,19.33
2018-11-06T16:27:55.991Z,19.67
2018-11-06T16:30:24.515Z,19.60
2018-11-06T16:32:53.048Z,19.07
2018-11-06T16:35:22.827Z,16.17
2018-11-06T16:37:51.702Z,17.60
2018-11-06T16:40:20.520Z,20.20
2018-11-06T16:42:49.380Z,14.97
2018-11-06T16:45:20.382Z,15.37
2018-11-06T16:47:49.830Z,18.10
2018-11-06T16:50:19.028Z,20.43
2018-11-06T16:52:47.772Z,20.87
2018-11-06T16:55:16.826Z,20.47
2018-11-06T16:57:45.788Z,24.87
2018-11-06T17:00:19.611Z,33.50
2018-11-06T17:02:47.956Z,31.13
2018-11-06T17:05:16.507Z,29.90
2018-11-06T17:07:45.352Z,26.37
2018-11-06T17:10:14.882Z,22.53
2018-11-06T17:12:43.405Z,19.40
2018-11-06T17:15:17.482Z,19.37
2018-11-06T17:17:46.969Z,22.53
2018-11-06T17:20:15.980Z,16.17
2018-11-06T17:22:44.481Z,19.23
2018-11-06T17:25:14.399Z,18.73
2018-11-06T17:27:42.916Z,16.63
2018-11-06T17:30:13.461Z,19.63
2018-11-06T17:32:42.314Z,20.10
2018-11-06T17:35:12.506Z,19.73
2018-11-06T17:37:41.377Z,18.37
2018-11-06T17:40:18.445Z,20.43
2018-11-06T17:42:47.052Z,22.87
2018-11-06T17:45:17.961Z,18.30
2018-11-06T17:47:46.417Z,18.90
2018-11-06T17:50:15.786Z,21.63
2018-11-06T17:52:44.493Z,21.87
2018-11-06T17:55:14.449Z,22.00
2018-11-06T17:57:43.101Z,25.43
2018-11-06T18:00:17.086Z,23.97
2018-11-06T18:02:45.786Z,23.33
2018-11-06T18:05:15.381Z,24.73
2018-11-06T18:07:44.208Z,24.40
2018-11-06T18:10:14.984Z,19.90
2018-11-06T18:12:44.003Z,21.40
2018-11-06T18:15:12.677Z,19.57
2018-11-06T18:17:41.813Z,21.83
2018-11-06T18:20:11.776Z,24.07
2018-11-06T18:22:41.114Z,21.90
2018-11-06T18:25:10.546Z,19.97
2018-11-06T18:27:39.327Z,24.67
2018-11-06T18:30:12.379Z,24.50
2018-11-06T18:32:40.921Z,26.63
2018-11-06T18:35:10.872Z,26.83
2018-11-06T18:37:40.014Z,24.53
2018-11-06T18:40:11.835Z,20.17
2018-11-06T18:42:40.906Z,20.87
2018-11-06T18:45:09.417Z,20.07
2018-11-06T18:47:37.986Z,20.80
2018-11-06T18:50:08.307Z,21.57
2018-11-06T18:52:37.025Z,26.00
2018-11-06T18:55:06.244Z,23.43
2018-11-06T18:57:35.031Z,22.27
2018-11-06T19:00:03.986Z,20.87
2018-11-06T19:02:32.517Z,19.77
2018-11-06T19:05:01.010Z,23.10
2018-11-06T19:07:29.561Z,22.40
2018-11-06T19:09:58.751Z,22.80
2018-11-06T19:12:27.369Z,20.97
2018-11-06T19:14:55.878Z,26.73
2018-11-06T19:17:24.402Z,21.63
2018-11-06T19:19:52.934Z,20.37
2018-11-06T19:22:21.573Z,23.03
2018-11-06T19:24:50.088Z,24.90
2018-11-06T19:27:18.617Z,21.83
2018-11-06T19:29:47.113Z,22.43
2018-11-06T19:32:15.649Z,22.67
2018-11-06T19:34:44.155Z,25.37
2018-11-06T19:37:12.697Z,28.20
2018-11-06T19:39:41.180Z,27.47
2018-11-06T19:42:09.718Z,35.07
2018-11-06T19:44:38.234Z,29.03
2018-11-06T19:47:06.810Z,29.33
2018-11-06T19:49:35.321Z,33.47
2018-11-06T19:52:03.841Z,33.43
2018-11-06T19:54:32.386Z,39.87
2018-11-06T19:57:00.894Z,31.97
2018-11-06T19:59:29.491Z,33.90
2018-11-06T20:01:57.995Z,33.27
2018-11-06T20:04:26.808Z,32.87
2018-11-06T20:06:55.323Z,30.47
2018-11-06T20:09:24.888Z,37.93
2018-11-06T20:11:53.645Z,34.33
2018-11-06T20:14:22.201Z,28.63
2018-11-06T20:16:50.790Z,28.23
2018-11-06T20:19:19.521Z,25.30
2018-11-06T20:21:48.294Z,24.67
2018-11-06T20:24:17.145Z,24.23
2018-11-06T20:26:45.767Z,21.93
2018-11-06T20:29:14.286Z,21.33
2018-11-06T20:31:43.145Z,20.73
2018-11-06T20:34:11.699Z,19.43
2018-11-06T20:36:40.345Z,17.87
2018-11-06T20:39:10.594Z,23.10
2018-11-06T20:41:39.122Z,25.60
2018-11-06T20:44:07.677Z,24.70
2018-11-06T20:46:36.268Z,24.80
2018-11-06T20:49:05.216Z,25.07
2018-11-06T20:51:33.652Z,18.87
2018-11-06T20:54:02.185Z,21.80
2018-11-06T20:56:30.714Z,33.87
2018-11-06T20:58:59.262Z,25.83
2018-11-06T21:01:27.773Z,25.93
2018-11-06T21:03:56.337Z,28.10
2018-11-06T21:06:24.834Z,25.40
2018-11-06T21:08:53.378Z,30.57
2018-11-06T21:11:21.895Z,32.20
2018-11-06T21:13:50.490Z,29.57
2018-11-06T21:16:19.011Z,59.07
2018-11-06T21:18:47.541Z,58.50
2018-11-06T21:21:16.045Z,63.10
2018-11-06T21:23:44.571Z,50.93
2018-11-06T21:26:13.199Z,40.47
2018-11-06T21:28:41.624Z,37.83
2018-11-06T21:31:10.135Z,46.53
2018-11-06T21:33:38.744Z,46.07
2018-11-06T21:36:07.262Z,37.80
2018-11-06T21:38:35.798Z,30.43
2018-11-06T21:41:04.313Z,30.60
2018-11-06T21:43:32.817Z,26.93
2018-11-06T21:46:01.349Z,29.63
2018-11-06T21:48:29.897Z,26.33
2018-11-06T21:50:58.425Z,31.47
2018-11-06T21:53:26.925Z,34.70
2018-11-06T21:55:55.454Z,33.47
2018-11-06T21:58:24.108Z,20.93
2018-11-06T22:00:52.686Z,17.77
2018-11-06T22:03:21.162Z,20.97
2018-11-06T22:05:49.705Z,19.50
2018-11-06T22:08:18.214Z,21.03
2018-11-06T22:10:46.758Z,26.73
2018-11-06T22:13:15.282Z,24.17
2018-11-06T22:15:43.807Z,29.60
2018-11-06T22:18:12.303Z,26.90
2018-11-06T22:20:40.830Z,22.63
2018-11-06T22:23:09.333Z,22.63
2018-11-06T22:25:37.857Z,24.13
2018-11-06T22:28:06.422Z,19.00
2018-11-06T22:30:34.973Z,19.23
2018-11-06T22:33:03.525Z,18.63
2018-11-06T22:35:32.017Z,58.87
2018-11-06T22:38:00.572Z,22.63
2018-11-06T22:40:29.062Z,24.03
2018-11-06T22:42:57.642Z,30.03
2018-11-06T22:45:26.189Z,19.87
2018-11-06T22:47:54.710Z,19.53
2018-11-06T22:50:23.258Z,25.83
2018-11-06T22:52:51.754Z,24.07
2018-11-06T22:55:20.297Z,24.23
2018-11-06T22:57:48.789Z,21.10
2018-11-06T23:00:24.385Z,25.10
2018-11-06T23:02:52.908Z,24.33
2018-11-06T23:05:21.448Z,19.17
2018-11-06T23:07:55.304Z,21.83
2018-11-06T23:10:23.889Z,17.97
2018-11-06T23:12:52.452Z,18.90
2018-11-06T23:15:20.993Z,21.53
2018-11-06T23:17:49.553Z,17.40
2018-11-06T23:20:18.071Z,20.00
2018-11-06T23:22:46.602Z,16.50
2018-11-06T23:25:15.145Z,19.87
2018-11-06T23:27:43.702Z,15.70
2018-11-06T23:30:13.726Z,18.93
2018-11-06T23:32:42.436Z,19.53
2018-11-06T23:35:10.937Z,18.93
2018-11-06T23:37:40.011Z,18.10
2018-11-06T23:40:09.192Z,20.07
2018-11-06T23:42:37.741Z,22.63
2018-11-06T23:45:07.182Z,16.53
2018-11-06T23:47:35.741Z,16.03
2018-11-06T23:50:04.342Z,15.77
2018-11-06T23:52:32.874Z,14.80
2018-11-06T23:55:01.403Z,15.40
2018-11-06T23:57:30.425Z,13.53
2018-11-06T23:59:59.725Z,13.27
